createdAt,value
2023-01-29T00:01:09.315Z,17.97
2023-01-29T00:03:35.417Z,17.97
2023-01-29T00:06:06.251Z,17.96
2023-01-29T00:08:35.966Z,17.97
2023-01-29T00:11:02.851Z,17.96
2023-01-29T00:13:28.776Z,17.97
2023-01-29T00:15:56.689Z,17.97
2023-01-29T00:18:22.784Z,17.97
2023-01-29T00:20:48.470Z,17.97
2023-01-29T00:23:14.650Z,17.96
2023-01-29T00:25:41.146Z,17.97
2023-01-29T00:28:06.841Z,17.96
2023-01-29T00:30:32.695Z,17.97
2023-01-29T00:32:58.351Z,17.97
2023-01-29T00:35:24.023Z,17.96
2023-01-29T00:37:49.657Z,17.95
2023-01-29T00:40:15.888Z,17.95
2023-01-29T00:43:04.072Z,17.96
2023-01-29T00:45:29.832Z,17.96
2023-01-29T00:47:55.478Z,17.96
2023-01-29T00:50:21.240Z,17.97
2023-01-29T00:52:48.857Z,17.96
2023-01-29T00:55:14.545Z,17.96
2023-01-29T00:57:40.217Z,17.95
2023-01-29T01:00:09.906Z,17.96
2023-01-29T01:02:55.527Z,17.97
2023-01-29T01:05:21.203Z,17.96
2023-01-29T01:07:48.656Z,17.97
2023-01-29T01:10:21.122Z,17.96
2023-01-29T01:12:49.720Z,17.97
2023-01-29T01:15:16.521Z,17.96
2023-01-29T01:17:42.168Z,17.95
2023-01-29T01:20:08.387Z,17.96
2023-01-29T01:22:35.026Z,17.96
2023-01-29T01:25:00.738Z,17.96
2023-01-29T01:27:26.404Z,17.95
2023-01-29T01:29:52.054Z,17.95
2023-01-29T01:32:17.739Z,17.96
2023-01-29T01:34:44.542Z,17.96
2023-01-29T01:37:10.809Z,17.96
2023-01-29T01:39:36.468Z,17.95
2023-01-29T01:42:02.381Z,17.95
2023-01-29T01:44:52.567Z,17.96
2023-01-29T01:47:23.089Z,17.95
2023-01-29T01:49:48.840Z,17.95
2023-01-29T01:52:15.731Z,17.95
2023-01-29T01:54:42.019Z,17.96
2023-01-29T01:57:15.371Z,17.96
2023-01-29T01:59:51.712Z,17.97
2023-01-29T02:02:37.379Z,17.96
2023-01-29T02:05:23.139Z,17.95
2023-01-29T02:08:09.519Z,17.95
2023-01-29T02:10:41.281Z,17.96
2023-01-29T02:13:07.329Z,17.96
2023-01-29T02:15:33.164Z,17.95
2023-01-29T02:17:59.017Z,17.96
2023-01-29T02:20:27.167Z,17.95
2023-01-29T02:23:04.524Z,17.94
2023-01-29T02:25:52.130Z,17.95
2023-01-29T02:28:31.607Z,17.96
2023-01-29T02:31:12.034Z,17.95
2023-01-29T02:34:05.971Z,17.95
2023-01-29T02:36:43.065Z,17.93
2023-01-29T02:39:20.641Z,17.94
2023-01-29T02:42:11.504Z,17.94
2023-01-29T02:44:51.039Z,17.95
2023-01-29T02:47:23.262Z,17.94
2023-01-29T02:49:58.265Z,17.95
2023-01-29T02:52:48.887Z,17.95
2023-01-29T02:55:21.720Z,17.95
2023-01-29T02:57:48.093Z,17.95
2023-01-29T03:00:18.249Z,17.94
2023-01-29T03:02:51.644Z,17.94
2023-01-29T03:05:22.221Z,17.94
2023-01-29T03:07:52.964Z,17.95
2023-01-29T03:10:25.485Z,17.95
2023-01-29T03:13:04.879Z,17.94
2023-01-29T03:15:38.446Z,17.93
2023-01-29T03:18:08.530Z,17.94
2023-01-29T03:20:39.484Z,17.95
2023-01-29T03:23:10.811Z,17.94
2023-01-29T03:25:57.494Z,17.95
2023-01-29T03:28:43.192Z,17.95
2023-01-29T03:31:31.625Z,17.94
2023-01-29T03:34:06.587Z,17.95
2023-01-29T03:36:38.802Z,17.94
2023-01-29T03:39:06.869Z,17.94
2023-01-29T03:41:35.910Z,17.94
2023-01-29T03:44:12.321Z,17.95
2023-01-29T03:46:47.946Z,17.94
2023-01-29T03:49:39.013Z,17.93
2023-01-29T03:52:15.223Z,17.94
2023-01-29T03:55:09.810Z,17.94
2023-01-29T03:57:40.352Z,17.94
2023-01-29T04:00:14.283Z,17.93
2023-01-29T04:02:48.215Z,17.94
2023-01-29T04:05:17.614Z,17.94
2023-01-29T04:07:43.850Z,17.95
2023-01-29T04:10:13.955Z,17.94
2023-01-29T04:12:44.930Z,17.94
2023-01-29T04:15:14.628Z,17.94
2023-01-29T04:17:43.048Z,17.93
2023-01-29T04:20:09.030Z,17.92
2023-01-29T04:22:38.428Z,17.92
2023-01-29T04:25:07.857Z,17.93
2023-01-29T04:27:52.157Z,17.94
2023-01-29T04:30:28.156Z,17.94
2023-01-29T04:33:02.606Z,17.94
2023-01-29T04:35:43.066Z,17.92
2023-01-29T04:38:25.054Z,17.93
2023-01-29T04:41:01.506Z,17.93
2023-01-29T04:43:36.225Z,17.93
2023-01-29T04:46:12.050Z,17.94
2023-01-29T04:48:49.080Z,17.92
2023-01-29T04:51:54.516Z,17.92
2023-01-29T04:54:44.202Z,17.92
2023-01-29T04:57:33.607Z,17.92
2023-01-29T05:00:07.287Z,17.92
2023-01-29T05:02:36.667Z,17.92
2023-01-29T05:05:03.056Z,17.91
2023-01-29T05:07:30.201Z,17.92
2023-01-29T05:09:56.094Z,17.93
2023-01-29T05:12:24.795Z,17.92
2023-01-29T05:14:51.301Z,17.92
2023-01-29T05:17:19.300Z,17.92
2023-01-29T05:19:45.636Z,17.92
2023-01-29T05:22:14.037Z,17.92
2023-01-29T05:24:39.719Z,17.93
2023-01-29T05:27:25.482Z,17.92
2023-01-29T05:29:51.137Z,17.92
2023-01-29T05:32:16.772Z,17.92
2023-01-29T05:34:42.418Z,17.92
2023-01-29T05:37:09.252Z,17.92
2023-01-29T05:39:34.889Z,17.92
2023-01-29T05:42:01.235Z,17.92
2023-01-29T05:44:26.881Z,17.92
2023-01-29T05:46:52.613Z,17.92
2023-01-29T05:49:19.797Z,17.92
2023-01-29T05:51:45.514Z,17.92
2023-01-29T05:54:11.882Z,17.92
2023-01-29T05:56:38.739Z,17.92
2023-01-29T05:59:04.405Z,17.92
2023-01-29T06:01:30.039Z,17.92
2023-01-29T06:03:55.730Z,17.92
2023-01-29T06:06:21.384Z,17.91
2023-01-29T06:08:47.285Z,17.91
2023-01-29T06:11:14.066Z,17.92
2023-01-29T06:13:40.026Z,17.92
2023-01-29T06:16:07.658Z,17.92
2023-01-29T06:18:33.455Z,17.92
2023-01-29T06:21:01.809Z,17.92
2023-01-29T06:23:27.751Z,17.92
2023-01-29T06:25:53.392Z,17.92
2023-01-29T06:28:19.034Z,17.92
2023-01-29T06:30:44.707Z,17.91
2023-01-29T06:33:10.407Z,17.91
2023-01-29T06:35:36.054Z,17.91
2023-01-29T06:38:01.710Z,17.91
2023-01-29T06:40:27.357Z,17.90
2023-01-29T06:42:53.033Z,17.91
2023-01-29T06:45:18.695Z,17.91
2023-01-29T06:47:44.360Z,17.91
2023-01-29T06:50:10.631Z,17.92
2023-01-29T06:52:36.285Z,17.91
2023-01-29T06:55:01.963Z,17.90
2023-01-29T06:57:29.228Z,17.91
2023-01-29T06:59:54.905Z,17.91
2023-01-29T07:02:20.644Z,17.91
2023-01-29T07:04:46.297Z,17.91
2023-01-29T07:07:12.905Z,17.91
2023-01-29T07:09:40.366Z,17.91
2023-01-29T07:12:06.305Z,17.91
2023-01-29T07:14:31.960Z,17.91
2023-01-29T07:16:57.587Z,17.92
2023-01-29T07:19:23.225Z,17.91
2023-01-29T07:21:48.920Z,17.91
2023-01-29T07:24:15.427Z,17.91
2023-01-29T07:26:41.394Z,17.90
2023-01-29T07:29:07.096Z,17.92
2023-01-29T07:31:33.036Z,17.90
2023-01-29T07:33:58.739Z,17.92
2023-01-29T07:36:24.383Z,17.90
2023-01-29T07:38:50.643Z,17.91
2023-01-29T07:41:16.493Z,17.91
2023-01-29T07:43:42.131Z,17.90
2023-01-29T07:46:08.122Z,17.91
2023-01-29T07:48:33.838Z,17.91
2023-01-29T07:50:59.515Z,17.90
2023-01-29T07:53:25.974Z,17.91
2023-01-29T07:55:51.630Z,17.90
2023-01-29T07:58:17.276Z,17.90
2023-01-29T08:00:43.434Z,17.90
2023-01-29T08:03:12.942Z,17.91
2023-01-29T08:05:38.594Z,17.89
2023-01-29T08:08:07.265Z,17.90
2023-01-29T08:10:35.121Z,17.89
2023-01-29T08:13:01.523Z,17.90
2023-01-29T08:15:27.836Z,17.90
2023-01-29T08:20:39.382Z,17.90
2023-01-29T08:23:07.327Z,17.90
2023-01-29T08:25:33.661Z,17.90
2023-01-29T08:27:59.712Z,17.91
2023-01-29T08:30:30.648Z,17.91
2023-01-29T08:32:56.486Z,17.89
2023-01-29T08:35:22.273Z,17.91
2023-01-29T08:37:57.478Z,17.90
2023-01-29T08:40:23.204Z,17.90
2023-01-29T08:42:48.861Z,17.91
2023-01-29T08:45:14.556Z,17.90
2023-01-29T08:47:45.304Z,17.90
2023-01-29T08:50:11.077Z,17.90
2023-01-29T08:52:36.715Z,17.89
2023-01-29T08:55:02.706Z,17.89
2023-01-29T08:57:28.337Z,17.90
2023-01-29T08:59:53.989Z,17.89
2023-01-29T09:02:19.736Z,17.90
2023-01-29T09:04:45.577Z,17.90
2023-01-29T09:07:11.216Z,17.89
2023-01-29T09:09:37.540Z,17.90
2023-01-29T09:12:03.350Z,17.89
2023-01-29T09:14:29.007Z,17.89
2023-01-29T09:16:54.717Z,17.89
2023-01-29T09:19:20.377Z,17.90
2023-01-29T09:21:46.005Z,17.90
2023-01-29T09:24:11.670Z,17.90
2023-01-29T09:26:38.852Z,17.90
2023-01-29T09:29:04.567Z,17.89
2023-01-29T09:31:30.289Z,17.89
2023-01-29T09:33:56.033Z,17.88
2023-01-29T09:36:21.687Z,17.90
2023-01-29T09:38:47.321Z,17.89
2023-01-29T09:41:52.813Z,17.89
2023-01-29T09:44:37.212Z,17.89
2023-01-29T09:47:05.210Z,17.89
2023-01-29T09:49:36.689Z,17.88
2023-01-29T09:52:10.164Z,17.89
2023-01-29T09:54:50.215Z,17.90
2023-01-29T09:57:40.301Z,17.89
2023-01-29T10:00:06.793Z,17.90
2023-01-29T10:02:58.713Z,17.89
2023-01-29T10:05:32.286Z,17.88
2023-01-29T10:08:35.827Z,17.89
2023-01-29T10:13:47.642Z,17.91
2023-01-29T10:16:43.574Z,17.92
2023-01-29T10:19:35.799Z,17.90
2023-01-29T10:22:12.229Z,17.90
2023-01-29T10:24:41.394Z,17.90
2023-01-29T10:27:13.222Z,17.89
2023-01-29T10:29:41.044Z,17.89
2023-01-29T10:32:13.768Z,17.89
2023-01-29T10:34:43.524Z,17.89
2023-01-29T10:37:16.040Z,17.89
2023-01-29T10:39:41.688Z,17.88
2023-01-29T10:42:22.145Z,17.88
2023-01-29T10:45:18.597Z,17.88
2023-01-29T10:48:24.332Z,17.89
2023-01-29T10:51:05.865Z,17.89
2023-01-29T10:53:42.133Z,17.88
2023-01-29T10:56:36.444Z,17.88
2023-01-29T10:59:35.237Z,17.87
2023-01-29T11:02:02.519Z,17.89
2023-01-29T11:04:29.705Z,17.88
2023-01-29T11:06:55.445Z,17.88
2023-01-29T11:09:42.265Z,17.89
2023-01-29T11:12:17.064Z,17.88
2023-01-29T11:14:48.099Z,17.88
2023-01-29T11:17:16.040Z,17.88
2023-01-29T11:19:43.800Z,17.88
2023-01-29T11:22:16.282Z,17.88
2023-01-29T11:24:42.329Z,17.87
2023-01-29T11:27:22.544Z,17.87
2023-01-29T11:29:49.184Z,17.87
2023-01-29T11:37:38.300Z,17.87
2023-01-29T11:42:53.861Z,17.87
2023-01-29T11:45:24.974Z,17.88
2023-01-29T11:47:53.941Z,17.89
2023-01-29T11:50:22.481Z,17.88
2023-01-29T11:52:48.044Z,17.89
2023-01-29T11:55:20.120Z,17.88
2023-01-29T11:57:48.377Z,17.87
2023-01-29T12:00:21.877Z,17.88
2023-01-29T12:02:53.680Z,17.88
2023-01-29T12:05:22.461Z,17.87
2023-01-29T12:07:49.978Z,17.87
2023-01-29T12:10:36.696Z,17.86
2023-01-29T12:13:19.220Z,17.87
2023-01-29T12:15:45.808Z,17.88
2023-01-29T12:18:31.389Z,17.87
2023-01-29T12:21:00.934Z,17.88
2023-01-29T12:23:34.177Z,17.87
2023-01-29T12:26:04.313Z,17.87
2023-01-29T12:28:37.040Z,17.87
2023-01-29T12:31:26.876Z,17.88
2023-01-29T12:34:05.514Z,17.87
2023-01-29T12:36:40.201Z,17.86
2023-01-29T12:39:16.016Z,17.87
2023-01-29T12:41:49.842Z,17.87
2023-01-29T12:44:33.776Z,17.87
2023-01-29T12:47:00.356Z,17.86
2023-01-29T12:49:29.162Z,17.87
2023-01-29T12:52:15.919Z,17.87
2023-01-29T12:54:54.066Z,17.87
2023-01-29T12:57:23.584Z,17.86
2023-01-29T12:59:54.453Z,17.86
2023-01-29T13:02:31.349Z,17.87
2023-01-29T13:05:18.244Z,17.86
2023-01-29T13:07:49.226Z,17.86
2023-01-29T13:10:18.436Z,17.87
2023-01-29T13:12:53.628Z,17.87
2023-01-29T13:15:23.948Z,17.86
2023-01-29T13:17:55.232Z,17.87
2023-01-29T13:20:25.044Z,17.87
2023-01-29T13:22:51.930Z,17.86
2023-01-29T13:25:19.112Z,17.86
2023-01-29T13:27:47.022Z,17.86
2023-01-29T13:30:30.302Z,17.87
2023-01-29T13:33:07.641Z,17.86
2023-01-29T13:35:36.995Z,17.86
2023-01-29T13:38:03.593Z,17.87
2023-01-29T13:40:30.585Z,17.86
2023-01-29T13:42:59.002Z,17.86
2023-01-29T13:45:34.306Z,17.86
2023-01-29T13:48:27.470Z,17.86
2023-01-29T13:50:55.011Z,17.86
2023-01-29T13:53:27.308Z,17.85
2023-01-29T13:55:53.006Z,17.86
2023-01-29T14:01:08.725Z,17.85
2023-01-29T14:04:04.218Z,17.86
2023-01-29T14:06:49.179Z,17.86
2023-01-29T14:09:38.424Z,17.86
2023-01-29T14:15:14.503Z,17.88
2023-01-29T14:17:53.566Z,17.88
2023-01-29T14:20:25.711Z,17.87
2023-01-29T14:22:55.685Z,17.87
2023-01-29T14:25:26.686Z,17.86
2023-01-29T14:27:52.555Z,17.86
2023-01-29T14:30:18.487Z,17.86
2023-01-29T14:32:48.795Z,17.86
2023-01-29T14:35:20.435Z,17.87
2023-01-29T14:37:49.234Z,17.86
2023-01-29T14:40:21.047Z,17.87
2023-01-29T14:43:04.711Z,17.86
2023-01-29T14:45:34.572Z,17.85
2023-01-29T14:48:39.085Z,17.85
2023-01-29T14:51:09.525Z,17.86
2023-01-29T14:54:04.200Z,17.87
2023-01-29T14:56:35.197Z,17.85
2023-01-29T15:01:54.467Z,17.86
2023-01-29T15:04:26.142Z,17.85
2023-01-29T15:07:00.433Z,17.85
2023-01-29T15:09:41.919Z,17.86
2023-01-29T15:12:30.459Z,17.85
2023-01-29T15:15:02.869Z,17.86
2023-01-29T15:17:35.886Z,17.86
2023-01-29T15:20:01.597Z,17.84
2023-01-29T15:22:29.030Z,17.86
2023-01-29T15:25:12.080Z,17.85
2023-01-29T15:27:41.189Z,17.85
2023-01-29T15:30:07.449Z,17.84
2023-01-29T15:32:36.968Z,17.86
2023-01-29T15:35:09.961Z,17.86
2023-01-29T15:37:36.336Z,17.85
2023-01-29T15:40:04.367Z,17.84
2023-01-29T15:42:43.780Z,17.85
2023-01-29T15:45:30.388Z,17.85
2023-01-29T15:48:04.636Z,17.84
2023-01-29T15:50:31.012Z,17.85
2023-01-29T15:52:58.040Z,17.85
2023-01-29T15:55:23.821Z,17.84
2023-01-29T15:57:49.566Z,17.84
2023-01-29T16:00:22.373Z,17.85
2023-01-29T16:02:48.165Z,17.83
2023-01-29T16:05:16.993Z,17.85
2023-01-29T16:07:43.986Z,17.85
2023-01-29T16:10:19.835Z,17.84
2023-01-29T16:12:50.470Z,17.84
2023-01-29T16:15:29.667Z,17.85
2023-01-29T16:17:55.662Z,17.84
2023-01-29T16:20:32.028Z,17.84
2023-01-29T16:22:57.992Z,17.84
2023-01-29T16:25:23.745Z,17.84
2023-01-29T16:27:49.437Z,17.84
2023-01-29T16:30:16.851Z,17.85
2023-01-29T16:32:42.580Z,17.84
2023-01-29T16:35:14.630Z,17.85
2023-01-29T16:37:40.504Z,17.83
2023-01-29T16:40:20.796Z,17.84
2023-01-29T16:42:46.435Z,17.83
2023-01-29T16:45:32.005Z,17.83
2023-01-29T16:48:01.095Z,17.83
2023-01-29T16:50:40.716Z,17.83
2023-01-29T16:53:18.188Z,17.84
2023-01-29T16:55:46.386Z,17.84
2023-01-29T16:58:15.563Z,17.84
2023-01-29T17:00:44.841Z,17.84
2023-01-29T17:03:11.428Z,17.83
2023-01-29T17:05:37.602Z,17.83
2023-01-29T17:08:03.676Z,17.84
2023-01-29T17:10:29.953Z,17.83
2023-01-29T17:12:58.397Z,17.83
2023-01-29T17:15:43.922Z,17.84
2023-01-29T17:18:17.586Z,17.83
2023-01-29T17:20:43.261Z,17.82
2023-01-29T17:23:08.894Z,17.83
2023-01-29T17:25:34.630Z,17.83
2023-01-29T17:28:01.035Z,17.83
2023-01-29T17:30:30.213Z,17.83
2023-01-29T17:32:55.874Z,17.83
2023-01-29T17:35:21.643Z,17.84
2023-01-29T17:37:47.344Z,17.82
2023-01-29T17:40:20.904Z,17.83
2023-01-29T17:42:46.544Z,17.83
2023-01-29T17:45:12.266Z,17.83
2023-01-29T17:47:37.913Z,17.83
2023-01-29T17:50:15.259Z,17.83
2023-01-29T17:52:40.901Z,17.83
2023-01-29T17:55:07.765Z,17.84
2023-01-29T17:57:33.507Z,17.83
2023-01-29T17:59:59.152Z,17.82
2023-01-29T18:02:28.893Z,17.84
2023-01-29T18:04:54.972Z,17.82
2023-01-29T18:07:20.608Z,17.82
2023-01-29T18:09:46.240Z,17.83
2023-01-29T18:12:11.884Z,17.82
2023-01-29T18:14:37.521Z,17.83
2023-01-29T18:17:03.170Z,17.83
2023-01-29T18:19:30.335Z,17.83
2023-01-29T18:21:56.001Z,17.82
2023-01-29T18:24:21.905Z,17.83
2023-01-29T18:26:48.406Z,17.82
2023-01-29T18:29:14.232Z,17.83
2023-01-29T18:31:39.911Z,17.83
2023-01-29T18:34:05.616Z,17.81
2023-01-29T18:36:31.352Z,17.82
2023-01-29T18:38:57.244Z,17.83
2023-01-29T18:41:23.011Z,17.83
2023-01-29T18:43:50.810Z,17.82
2023-01-29T18:46:16.568Z,17.82
2023-01-29T18:48:42.941Z,17.83
2023-01-29T18:51:08.784Z,17.82
2023-01-29T18:53:34.418Z,17.82
2023-01-29T18:56:03.398Z,17.83
2023-01-29T18:58:36.421Z,17.82
2023-01-29T19:01:08.150Z,17.82
2023-01-29T19:03:34.965Z,17.82
2023-01-29T19:06:01.787Z,17.81
2023-01-29T19:08:28.267Z,17.82
2023-01-29T19:10:53.909Z,17.82
2023-01-29T19:13:19.559Z,17.82
2023-01-29T19:15:47.245Z,17.81
2023-01-29T19:18:14.556Z,17.82
2023-01-29T19:20:41.376Z,17.81
2023-01-29T19:23:07.886Z,17.82
2023-01-29T19:25:37.415Z,17.82
2023-01-29T19:28:03.136Z,17.82
2023-01-29T19:30:28.856Z,17.81
2023-01-29T19:32:54.556Z,17.83
2023-01-29T19:35:20.388Z,17.81
2023-01-29T19:37:46.098Z,17.80
2023-01-29T19:40:11.794Z,17.80
2023-01-29T19:42:37.575Z,17.81
2023-01-29T19:45:04.310Z,17.82
2023-01-29T19:47:30.280Z,17.81
2023-01-29T19:49:55.938Z,17.82
2023-01-29T19:52:50.137Z,17.80
2023-01-29T19:55:17.004Z,17.81
2023-01-29T19:57:42.862Z,17.81
2023-01-29T20:00:11.259Z,17.80
2023-01-29T20:02:37.106Z,17.82
2023-01-29T20:05:04.657Z,17.82
2023-01-29T20:07:30.305Z,17.81
2023-01-29T20:09:55.943Z,17.81
2023-01-29T20:12:21.648Z,17.81
2023-01-29T20:14:48.210Z,17.79
2023-01-29T20:17:15.534Z,17.80
2023-01-29T20:19:42.560Z,17.79
2023-01-29T20:22:08.210Z,17.81
2023-01-29T20:24:38.210Z,17.82
2023-01-29T20:27:04.974Z,17.82
2023-01-29T20:29:31.135Z,17.80
2023-01-29T20:31:56.777Z,17.80
2023-01-29T20:34:23.211Z,17.80
2023-01-29T20:36:48.962Z,17.82
2023-01-29T20:39:14.759Z,17.80
2023-01-29T20:41:40.903Z,17.80
2023-01-29T20:44:07.490Z,17.81
2023-01-29T20:46:34.462Z,17.80
2023-01-29T20:49:00.985Z,17.80
2023-01-29T20:51:26.646Z,17.79
2023-01-29T20:53:52.379Z,17.81
2023-01-29T20:56:18.197Z,17.81
2023-01-29T20:58:46.286Z,17.81
2023-01-29T21:01:14.863Z,17.81
2023-01-29T21:03:40.861Z,17.81
2023-01-29T21:06:07.798Z,17.81
2023-01-29T21:08:34.483Z,17.80
2023-01-29T21:11:00.566Z,17.81
2023-01-29T21:13:26.288Z,17.79
2023-01-29T21:15:51.920Z,17.80
2023-01-29T21:18:17.729Z,17.81
2023-01-29T21:20:43.705Z,17.79
2023-01-29T21:23:09.820Z,17.80
2023-01-29T21:25:37.485Z,17.80
2023-01-29T21:28:04.094Z,17.80
2023-01-29T21:30:29.779Z,17.80
2023-01-29T21:32:55.472Z,17.79
2023-01-29T21:35:21.151Z,17.80
2023-01-29T21:37:46.797Z,17.80
2023-01-29T21:40:12.564Z,17.82
2023-01-29T21:42:58.116Z,17.80
2023-01-29T21:45:23.757Z,17.80
2023-01-29T21:47:49.389Z,17.79
2023-01-29T21:50:15.646Z,17.80
2023-01-29T21:52:41.663Z,17.78
2023-01-29T21:55:07.623Z,17.79
2023-01-29T21:57:33.424Z,17.79
2023-01-29T21:59:59.119Z,17.80
2023-01-29T22:02:30.031Z,17.80
2023-01-29T22:05:16.612Z,17.79
2023-01-29T22:07:44.189Z,17.79
2023-01-29T22:10:11.109Z,17.79
2023-01-29T22:12:36.785Z,17.78
2023-01-29T22:15:02.535Z,17.80
2023-01-29T22:17:28.178Z,17.79
2023-01-29T22:19:53.824Z,17.79
2023-01-29T22:22:19.517Z,17.79
2023-01-29T22:24:45.792Z,17.79
2023-01-29T22:27:13.000Z,17.80
2023-01-29T22:29:38.653Z,17.80
2023-01-29T22:32:05.446Z,17.79
2023-01-29T22:34:31.586Z,17.79
2023-01-29T22:36:57.236Z,17.79
2023-01-29T22:39:22.885Z,17.78
2023-01-29T22:41:48.536Z,17.79
2023-01-29T22:44:14.169Z,17.80
2023-01-29T22:46:39.921Z,17.79
2023-01-29T22:49:05.633Z,17.80
2023-01-29T22:51:31.293Z,17.80
2023-01-29T22:53:57.117Z,17.79
2023-01-29T22:56:25.034Z,17.79
2023-01-29T22:58:51.874Z,17.80
2023-01-29T23:01:19.322Z,17.80
2023-01-29T23:03:46.178Z,17.80
2023-01-29T23:06:12.654Z,17.79
2023-01-29T23:08:38.338Z,17.79
2023-01-29T23:11:20.580Z,17.80
2023-01-29T23:13:49.904Z,17.80
2023-01-29T23:16:16.376Z,17.79
2023-01-29T23:18:42.799Z,17.79
2023-01-29T23:21:08.768Z,17.79
2023-01-29T23:23:36.077Z,17.80
2023-01-29T23:26:23.077Z,17.79
2023-01-29T23:28:48.893Z,17.79
2023-01-29T23:31:15.213Z,17.80
2023-01-29T23:33:40.932Z,17.80
2023-01-29T23:36:07.229Z,17.79
2023-01-29T23:38:32.888Z,17.79
2023-01-29T23:40:58.854Z,17.79
2023-01-29T23:43:25.625Z,17.79
2023-01-29T23:45:51.283Z,17.78
2023-01-29T23:48:16.999Z,17.79
2023-01-29T23:50:42.949Z,17.79
2023-01-29T23:53:08.657Z,17.79
2023-01-29T23:55:34.314Z,17.77
2023-01-29T23:58:00.010Z,17.78
